Pagina principale
METAR-TAF:

METAR-TAF

Aeroporti :

Teodo, Montenegro

latitudine: 42-24N, longitudine: 018-44E, altezza: 5 m

Osservazione

Il bollettino è stato emesso 14 minuti fa, alle 12:00 UTC
Vento 2 kt da direzioni variabili
Temperature 9°C
Umidità 18%
Pressione 1033 hPa
Visibilità 10 km o più
nessuna nube inferiore a 1500 m e nessun cumulonembo

METAR: LYTV 091200Z VRB02KT CAVOK 09/M14 Q1033 NOSIG

Ora: 13:14 (12:14 UTC)

Previsione

Il bollettino è stato emesso 1 ora e 14 minuti fa, alle 11:00 UTC
Previsione valida dal 09 alle 12 UTC al 10 alle 12 UTC
Vento 8 kt da ovest/nord-ovest
Visibilità 10 km o più
nessuna nube inferiore a 1500 m e nessun cumulonembo

TAF: LYTV 091100Z 0912/1012 29008KT CAVOK TX09/0913Z TNM02/1005Z

Osservazioni e previsioni meteorologiche di più di 4000 aeroporti (messaggi METAR e TAF).

Le stazioni disponibili sono rappresentate dai dischi gialli e rossi sulla carta.

Puntare il mouse per vedere il nome della stazione.

Clicca sopra per visualizzare le osservazioni e previsioni meteorologiche.

Per cambiare la mappa : fare clic sui pulsanti verdi con una croce nera per ingrandire, il pulsante verde con un trattino per diminuire, o sulla freccia verde per le mappe adiacenti.


METAR-TAF: